Time;durP1;ratioP1;P1;durP2;ratioP2;P2;SDS_P1;SDS_P2;PMS_P1;PMS_P2;Temp;Humidity;BMP_temperature;BMP_pressure;BME280_temperature;BME280_humidity;BME280_pressure;Samples;Min_cycle;Max_cycle;Signal;HPM_P1;HPM_P2
2024/01/02 00:01:11;;;;;;;13.90;12.50;;;;;;;8.28;76.16;94640.91;5076286;28;20308;-69
2024/01/02 00:03:36;;;;;;;13.77;12.03;;;;;;;8.38;76.01;94655.59;5078954;28;20214;-73
2024/01/02 00:06:02;;;;;;;14.00;12.50;;;;;;;8.29;76.69;94664.34;5075000;28;20320;-70
2024/01/02 00:08:27;;;;;;;13.87;12.37;;;;;;;8.31;76.53;94657.19;5074329;28;20573;-70
2024/01/02 00:10:52;;;;;;;14.27;12.60;;;;;;;8.37;76.22;94664.44;5077122;28;20254;-68
2024/01/02 00:13:18;;;;;;;13.00;11.60;;;;;;;8.37;75.95;94667.06;5074953;28;20272;-74
2024/01/02 00:15:43;;;;;;;12.63;11.33;;;;;;;8.40;76.00;94673.84;5079997;28;20203;-67
2024/01/02 00:18:09;;;;;;;11.17;10.07;;;;;;;8.37;76.25;94666.25;5078149;28;20488;-67
2024/01/02 00:20:34;;;;;;;10.33;9.30;;;;;;;8.38;75.82;94662.63;5073305;28;20315;-67
2024/01/02 00:22:59;;;;;;;9.80;8.77;;;;;;;8.39;75.84;94662.53;5073829;28;20217;-67
2024/01/02 00:25:25;;;;;;;10.33;8.87;;;;;;;8.45;75.75;94668.16;5080386;28;20223;-67
2024/01/02 00:27:50;;;;;;;10.40;8.87;;;;;;;8.43;75.68;94667.47;5077244;28;20183;-66
2024/01/02 00:30:16;;;;;;;9.90;8.57;;;;;;;8.40;75.83;94671.22;5075149;28;20261;-69
2024/01/02 00:32:41;;;;;;;11.60;9.30;;;;;;;8.45;75.91;94671.59;5067700;28;20305;-68
2024/01/02 00:35:07;;;;;;;10.23;9.13;;;;;;;8.45;75.66;94673.41;5075021;28;20267;-67
2024/01/02 00:37:32;;;;;;;9.17;7.97;;;;;;;8.45;75.69;94668.16;5071477;28;20193;-68
2024/01/02 00:39:57;;;;;;;8.63;7.80;;;;;;;8.43;75.77;94670.09;5074362;28;20192;-68
2024/01/02 00:42:23;;;;;;;7.67;6.77;;;;;;;8.49;75.47;94666.88;5069933;28;20236;-68
2024/01/02 00:44:48;;;;;;;7.77;6.97;;;;;;;8.57;75.46;94661.72;5077148;28;20215;-68
2024/01/02 00:47:14;;;;;;;7.73;6.93;;;;;;;8.54;75.47;94654.16;5077656;28;20243;-68
2024/01/02 00:49:39;;;;;;;7.30;6.53;;;;;;;8.50;75.33;94648.41;5072001;28;20208;-68
2024/01/02 00:52:05;;;;;;;7.10;6.30;;;;;;;8.54;75.41;94643.69;5074133;28;20327;-68
2024/01/02 00:54:30;;;;;;;7.60;6.17;;;;;;;8.38;75.65;94644.31;5077176;28;20234;-67
2024/01/02 00:56:56;;;;;;;6.30;5.60;;;;;;;8.34;75.87;94656.88;5078346;28;20213;-67
2024/01/02 00:59:21;;;;;;;5.57;5.07;;;;;;;8.37;75.83;94643.47;5074740;28;20213;-67
2024/01/02 01:01:46;;;;;;;7.23;5.60;;;;;;;8.39;76.14;94643.34;5077169;28;20227;-68
2024/01/02 01:04:12;;;;;;;6.00;5.40;;;;;;;8.49;75.94;94641.50;5072833;28;20185;-67
2024/01/02 01:06:37;;;;;;;6.00;5.40;;;;;;;8.49;75.87;94640.69;5073137;28;20216;-67
2024/01/02 01:09:03;;;;;;;6.20;5.10;;;;;;;8.52;76.00;94632.50;5069554;28;20221;-67
2024/01/02 01:11:28;;;;;;;6.00;5.40;;;;;;;8.46;76.23;94627.88;5077222;28;20211;-67
2024/01/02 01:13:54;;;;;;;5.63;4.80;;;;;;;8.50;76.24;94640.53;5072695;28;20227;-67
2024/01/02 01:16:19;;;;;;;6.20;5.60;;;;;;;8.52;76.08;94622.84;5069835;28;20208;-68
2024/01/02 01:18:45;;;;;;;5.10;4.60;;;;;;;8.58;76.01;94637.16;5071608;28;20169;-67
2024/01/02 01:21:10;;;;;;;5.87;5.30;;;;;;;8.52;75.97;94635.13;5072391;28;20298;-67
2024/01/02 01:23:36;;;;;;;6.03;5.43;;;;;;;8.59;76.12;94633.56;5077734;28;20239;-67
2024/01/02 01:26:01;;;;;;;6.37;5.60;;;;;;;8.59;76.32;94641.44;5075650;28;20575;-67
2024/01/02 01:28:27;;;;;;;5.90;5.30;;;;;;;8.58;76.41;94637.16;5067974;28;20185;-67
2024/01/02 01:30:53;;;;;;;7.83;6.37;;;;;;;8.54;76.97;94641.06;5068989;28;20181;-67
2024/01/02 01:33:19;;;;;;;6.47;5.80;;;;;;;8.51;77.20;94643.97;5075061;28;20244;-68
2024/01/02 01:35:44;;;;;;;7.60;6.00;;;;;;;8.49;77.27;94630.19;5068791;28;20708;-67
2024/01/02 01:38:10;;;;;;;6.70;6.10;;;;;;;8.51;77.12;94633.50;5080416;28;20224;-67
2024/01/02 01:40:35;;;;;;;6.33;5.63;;;;;;;8.46;77.53;94630.50;5071321;28;20224;-67
2024/01/02 01:43:01;;;;;;;6.23;5.63;;;;;;;8.47;77.59;94635.56;5073845;28;20181;-67
2024/01/02 01:45:26;;;;;;;6.80;6.10;;;;;;;8.52;77.60;94632.50;5070722;28;20213;-67
2024/01/02 01:47:52;;;;;;;6.10;5.50;;;;;;;8.49;77.13;94628.41;5077713;28;20216;-68
2024/01/02 01:50:18;;;;;;;6.27;5.67;;;;;;;8.47;77.55;94630.34;5070640;28;20242;-68
2024/01/02 01:52:44;;;;;;;6.67;5.97;;;;;;;8.51;77.89;94625.63;5074805;28;20231;-68
2024/01/02 01:55:11;;;;;;;6.47;5.87;;;;;;;8.49;77.79;94617.09;5077017;28;20210;-66
2024/01/02 01:57:39;;;;;;;6.40;5.80;;;;;;;8.43;78.11;94623.75;5079535;28;20225;-68
2024/01/02 02:00:05;;;;;;;6.80;6.10;;;;;;;8.42;78.03;94635.22;5075150;28;20252;-67
2024/01/02 02:02:32;;;;;;;7.90;6.43;;;;;;;8.42;77.79;94635.22;5070835;28;20255;-67
2024/01/02 02:04:59;;;;;;;6.50;5.80;;;;;;;8.45;77.94;94631.47;5075778;28;20229;-67
2024/01/02 02:07:26;;;;;;;7.50;6.73;;;;;;;8.50;77.50;94634.44;5070109;28;20189;-68
2024/01/02 02:09:52;;;;;;;7.60;6.83;;;;;;;8.49;77.75;94630.19;5078620;28;20196;-67
2024/01/02 02:12:17;;;;;;;7.00;6.30;;;;;;;8.52;77.83;94624.66;5061543;28;20228;-67
2024/01/02 02:14:43;;;;;;;8.50;6.43;;;;;;;8.47;77.95;94619.03;5078987;28;20294;-67
2024/01/02 02:17:08;;;;;;;7.87;7.07;;;;;;;8.43;77.90;94622.94;5074013;28;20222;-67
2024/01/02 02:19:34;;;;;;;8.07;6.50;;;;;;;8.43;78.07;94621.13;5071550;28;20300;-68
2024/01/02 02:22:00;;;;;;;9.17;7.70;;;;;;;8.45;78.21;94626.25;5075137;28;20192;-67
2024/01/02 02:24:26;;;;;;;10.47;9.27;;;;;;;8.44;78.22;94624.56;5067970;28;20217;-67
2024/01/02 02:26:55;;;;;;;9.40;8.40;;;;;;;8.50;77.99;94624.81;5073784;28;20230;-67
2024/01/02 02:29:20;;;;;;;14.37;8.97;;;;;;;8.44;78.51;94614.09;5073080;28;20221;-67
2024/01/02 02:31:45;;;;;;;9.83;8.83;;;;;;;8.43;79.18;94620.31;5067185;28;20308;-69
2024/01/02 02:34:11;;;;;;;9.53;8.53;;;;;;;8.33;79.75;94621.16;5072294;28;20192;-68
2024/01/02 02:36:36;;;;;;;10.33;9.33;;;;;;;8.18;80.19;94627.88;5056922;28;20216;-68
2024/01/02 02:39:02;;;;;;;11.53;9.77;;;;;;;8.22;80.34;94623.16;5076759;28;20220;-65
2024/01/02 02:41:27;;;;;;;10.53;9.43;;;;;;;8.23;80.42;94614.34;5079541;28;20220;-68
2024/01/02 02:43:53;;;;;;;10.97;9.10;;;;;;;8.22;79.96;94616.13;5077546;28;20322;-67
2024/01/02 02:46:18;;;;;;;11.73;9.17;;;;;;;8.17;80.04;94616.56;5081635;28;20214;-66
2024/01/02 02:48:43;;;;;;;10.63;9.57;;;;;;;8.20;80.35;94619.88;5078236;28;20192;-68
2024/01/02 02:51:10;;;;;;;9.50;8.17;;;;;;;8.23;79.86;94611.72;5081177;28;20237;-68
2024/01/02 02:53:35;;;;;;;8.40;7.37;;;;;;;8.23;79.32;94607.28;5071608;28;20216;-66
2024/01/02 02:56:01;;;;;;;8.07;7.23;;;;;;;8.18;79.21;94615.63;5070665;28;20232;-66
2024/01/02 02:58:26;;;;;;;7.93;6.90;;;;;;;8.18;79.28;94609.56;5074369;28;20211;-68
2024/01/02 03:00:52;;;;;;;7.70;6.43;;;;;;;8.14;79.31;94611.63;5074430;28;20189;-68
2024/01/02 03:03:17;;;;;;;6.90;6.20;;;;;;;8.23;78.79;94615.16;5072839;28;20221;-66
2024/01/02 03:05:42;;;;;;;6.77;6.00;;;;;;;8.25;78.56;94615.84;5079668;28;20216;-68
2024/01/02 03:08:08;;;;;;;5.80;5.20;;;;;;;8.29;78.17;94613.75;5073897;28;20756;-68
2024/01/02 03:10:33;;;;;;;5.90;5.10;;;;;;;8.26;78.25;94611.41;5070071;28;20189;-68
2024/01/02 03:12:59;;;;;;;6.00;4.97;;;;;;;8.25;78.71;94607.16;5070165;28;20189;-68
2024/01/02 03:15:24;;;;;;;6.13;5.13;;;;;;;8.27;78.75;94608.66;5075785;28;20301;-68
2024/01/02 03:17:50;;;;;;;5.63;4.63;;;;;;;8.26;79.17;94612.25;5081503;28;20226;-68
2024/01/02 03:20:16;;;;;;;5.50;4.90;;;;;;;8.29;78.61;94606.72;5067258;28;20217;-68
2024/01/02 03:22:41;;;;;;;4.30;3.90;;;;;;;8.27;78.10;94607.84;5071139;28;20227;-68
2024/01/02 03:25:07;;;;;;;4.10;3.77;;;;;;;8.23;78.06;94607.28;5078620;28;20188;-68
2024/01/02 03:27:33;;;;;;;3.77;3.47;;;;;;;8.13;78.28;94609.16;5076228;28;20224;-68
2024/01/02 03:29:58;;;;;;;4.80;3.40;;;;;;;8.21;78.44;94611.06;5075580;28;20286;-68
2024/01/02 03:32:23;;;;;;;4.20;3.40;;;;;;;8.08;77.95;94612.22;5071797;28;20221;-68
2024/01/02 03:34:50;;;;;;;3.83;3.20;;;;;;;8.10;78.04;94615.53;5079616;28;20233;-68
2024/01/02 03:37:16;;;;;;;3.60;3.07;;;;;;;8.02;78.59;94611.97;5096363;28;20253;-68
2024/01/02 03:39:41;;;;;;;3.80;3.13;;;;;;;8.13;78.28;94619.66;5074855;28;20169;-68
2024/01/02 03:42:07;;;;;;;5.20;3.47;;;;;;;8.07;79.08;94620.22;5071850;28;20221;-68
2024/01/02 03:44:33;;;;;;;3.63;3.33;;;;;;;8.08;78.83;94606.16;5073377;28;20209;-68
2024/01/02 03:46:59;;;;;;;3.87;3.47;;;;;;;8.12;79.06;94615.34;5078424;28;20217;-67
2024/01/02 03:49:25;;;;;;;3.87;3.10;;;;;;;8.14;79.46;94608.19;5077843;28;20181;-68
2024/01/02 03:51:51;;;;;;;5.27;3.30;;;;;;;8.16;79.14;94627.19;5065564;28;20345;-68
2024/01/02 03:54:16;;;;;;;3.73;3.10;;;;;;;8.14;79.27;94623.91;5070138;28;20212;-67
2024/01/02 03:56:42;;;;;;;5.77;3.37;;;;;;;8.09;79.21;94613.84;5077608;28;20228;-67
2024/01/02 03:59:07;;;;;;;3.93;3.60;;;;;;;8.14;78.94;94610.81;5079216;28;20219;-67
2024/01/02 04:01:41;;;;;;;4.23;3.80;;;;;;;8.13;79.03;94606.56;5069612;28;20192;-67
2024/01/02 04:04:06;;;;;;;4.17;3.60;;;;;;;8.19;79.06;94616.44;5070799;28;20184;-67
2024/01/02 04:06:32;;;;;;;3.80;3.50;;;;;;;8.13;78.77;94624.88;5070745;28;20217;-67
2024/01/02 04:08:58;;;;;;;3.20;2.90;;;;;;;8.03;79.30;94616.25;5075140;28;20217;-66
2024/01/02 04:11:23;;;;;;;6.90;4.03;;;;;;;8.12;79.55;94615.34;5073652;28;20279;-67
2024/01/02 04:13:49;;;;;;;4.53;4.13;;;;;;;8.14;79.36;94608.19;5076178;28;20243;-67
2024/01/02 04:16:14;;;;;;;4.00;3.60;;;;;;;8.06;79.34;94616.78;5072762;28;20209;-67
2024/01/02 04:18:39;;;;;;;4.83;4.00;;;;;;;8.12;79.33;94624.03;5083783;28;20238;-67
2024/01/02 04:21:05;;;;;;;4.20;3.80;;;;;;;8.13;78.85;94622.25;5068707;28;20243;-67
2024/01/02 04:23:30;;;;;;;4.63;4.00;;;;;;;8.08;79.02;94619.25;5080525;28;20212;-67
2024/01/02 04:25:55;;;;;;;3.67;3.23;;;;;;;8.05;78.34;94619.56;5081120;28;20302;-67
2024/01/02 04:28:21;;;;;;;3.40;3.10;;;;;;;8.13;78.23;94627.50;5070729;28;20231;-67
2024/01/02 04:30:46;;;;;;;3.87;3.10;;;;;;;8.05;78.17;94622.16;5085372;28;20185;-68
2024/01/02 04:33:12;;;;;;;3.47;2.93;;;;;;;8.03;77.44;94630.16;5075573;28;20220;-67
2024/01/02 04:35:37;;;;;;;4.10;3.20;;;;;;;8.01;77.46;94629.47;5072904;28;20224;-67
2024/01/02 04:38:03;;;;;;;3.77;2.80;;;;;;;7.97;77.62;94622.06;5074006;28;20220;-67
2024/01/02 04:40:28;;;;;;;5.03;3.20;;;;;;;8.00;77.56;94630.44;5062538;28;20184;-66
2024/01/02 04:42:54;;;;;;;4.03;3.23;;;;;;;7.95;78.17;94630.88;5078196;28;20218;-67
2024/01/02 04:45:19;;;;;;;4.10;3.53;;;;;;;8.00;78.22;94633.06;5075686;28;20327;-67
2024/01/02 04:47:44;;;;;;;3.57;2.93;;;;;;;8.04;78.04;94625.75;5071326;28;20224;-67
2024/01/02 04:50:10;;;;;;;5.10;3.30;;;;;;;8.03;78.24;94631.97;5066052;28;20315;-67
2024/01/02 04:52:35;;;;;;;3.93;3.23;;;;;;;8.01;78.43;94634.72;5073357;28;20216;-67
2024/01/02 04:55:01;;;;;;;4.47;3.60;;;;;;;8.02;78.31;94619.81;5065924;28;20192;-67
2024/01/02 04:57:27;;;;;;;3.93;3.30;;;;;;;7.98;78.54;94629.78;5074476;28;20299;-67
2024/01/02 04:59:52;;;;;;;3.30;3.00;;;;;;;8.00;78.84;94627.03;5074037;28;20291;-68
2024/01/02 05:02:22;;;;;;;3.40;3.10;;;;;;;8.06;78.67;94629.03;5071366;28;20272;-67
2024/01/02 05:04:49;;;;;;;4.00;3.60;;;;;;;8.09;78.31;94631.38;5068004;28;20208;-68
2024/01/02 05:07:15;;;;;;;3.40;2.80;;;;;;;8.13;78.21;94636.19;5068923;28;20186;-67
2024/01/02 05:09:40;;;;;;;3.70;3.30;;;;;;;8.14;77.82;94634.38;5074245;28;20215;-67
2024/01/02 05:12:06;;;;;;;3.50;3.20;;;;;;;8.06;77.77;94629.03;5079291;28;20246;-67
2024/01/02 05:14:31;;;;;;;4.87;3.37;;;;;;;7.89;78.36;94633.28;5069511;28;20224;-66
2024/01/02 05:16:56;;;;;;;3.70;3.20;;;;;;;7.91;78.66;94640.00;5075387;28;20219;-67
2024/01/02 05:19:22;;;;;;;3.87;3.10;;;;;;;7.84;77.67;94638.94;5062918;28;20192;-67
2024/01/02 05:21:47;;;;;;;3.50;2.67;;;;;;;7.75;77.44;94639.78;5060907;28;20204;-66
2024/01/02 05:24:13;;;;;;;3.57;2.70;;;;;;;7.82;76.95;94640.84;5077338;28;20314;-68
2024/01/02 05:26:38;;;;;;;3.40;2.47;;;;;;;7.79;76.89;94645.56;5065258;28;20213;-67
2024/01/02 05:29:04;;;;;;;2.43;2.13;;;;;;;7.80;76.90;94641.97;5073053;28;20304;-67
2024/01/02 05:31:29;;;;;;;2.87;1.97;;;;;;;7.70;76.20;94657.72;5072040;28;20239;-67
2024/01/02 05:33:54;;;;;;;2.57;2.37;;;;;;;7.44;77.57;94650.50;5080889;28;20187;-67
2024/01/02 05:36:20;;;;;;;2.20;2.10;;;;;;;7.41;78.24;94666.47;5073613;28;20224;-67
2024/01/02 05:38:45;;;;;;;3.07;2.00;;;;;;;7.60;77.90;94651.69;5071762;28;20216;-67
2024/01/02 05:41:11;;;;;;;2.07;1.90;;;;;;;7.44;77.85;94674.03;5077726;28;20317;-67
2024/01/02 05:43:36;;;;;;;1.77;1.67;;;;;;;7.30;78.37;94664.03;5074281;28;20303;-68
2024/01/02 05:46:01;;;;;;;1.97;1.70;;;;;;;7.25;78.41;94664.44;5070472;28;20221;-68
2024/01/02 05:48:27;;;;;;;2.90;1.70;;;;;;;7.38;78.19;94673.78;5073495;28;20218;-67
2024/01/02 05:50:52;;;;;;;2.17;1.70;;;;;;;7.37;77.76;94675.56;5066475;28;20265;-67
2024/01/02 05:53:18;;;;;;;2.80;2.00;;;;;;;7.33;77.23;94671.59;5078021;28;20213;-66
2024/01/02 05:55:43;;;;;;;1.70;1.60;;;;;;;7.24;77.91;94682.88;5075589;28;20231;-68
2024/01/02 05:58:08;;;;;;;2.37;1.97;;;;;;;7.12;77.83;94684.00;5072203;28;20177;-68
2024/01/02 06:00:34;;;;;;;1.80;1.70;;;;;;;7.10;78.03;94691.97;5069411;28;20247;-67
2024/01/02 06:03:00;;;;;;;1.70;1.60;;;;;;;7.13;77.65;94689.06;5077894;28;20208;-67
2024/01/02 06:05:26;;;;;;;1.80;1.57;;;;;;;7.15;77.06;94712.47;5081572;28;20230;-67
2024/01/02 06:07:51;;;;;;;1.70;1.50;;;;;;;7.15;77.29;94715.91;5071750;28;20228;-67
2024/01/02 06:10:16;;;;;;;1.30;1.20;;;;;;;7.03;77.72;94720.47;5071317;28;20196;-68
2024/01/02 06:12:42;;;;;;;1.83;1.50;;;;;;;6.98;77.98;94720.06;5084532;28;20267;-68
2024/01/02 06:15:08;;;;;;;1.87;1.70;;;;;;;6.95;77.85;94717.72;5075289;28;20238;-66
2024/01/02 06:17:33;;;;;;;2.00;1.60;;;;;;;7.12;77.83;94725.84;5074119;28;20221;-68
2024/01/02 06:19:58;;;;;;;1.60;1.50;;;;;;;6.88;77.75;94716.59;5075088;28;20220;-67
2024/01/02 06:22:24;;;;;;;1.90;1.70;;;;;;;6.96;77.73;94723.75;5076586;28;20223;-68
2024/01/02 06:24:49;;;;;;;1.37;1.27;;;;;;;6.86;77.81;94731.59;5072231;28;20202;-68
2024/01/02 06:27:15;;;;;;;3.03;1.37;;;;;;;6.93;78.39;94740.53;5080654;28;20273;-68
2024/01/02 06:29:40;;;;;;;1.50;1.40;;;;;;;6.92;77.43;94741.47;5075721;28;20217;-68
2024/01/02 06:32:06;;;;;;;1.40;1.30;;;;;;;6.88;77.44;94732.28;5076444;28;20307;-68
2024/01/02 06:34:32;;;;;;;1.60;1.50;;;;;;;6.94;76.68;94739.56;5072905;28;20558;-67
2024/01/02 06:36:57;;;;;;;0.90;0.90;;;;;;;6.95;76.62;94743.84;5076087;28;20185;-67
2024/01/02 06:39:23;;;;;;;1.00;0.90;;;;;;;6.83;76.55;94748.34;5072612;28;20224;-68
2024/01/02 06:41:49;;;;;;;1.10;1.00;;;;;;;6.83;76.80;94755.38;5074557;28;20251;-67
2024/01/02 06:44:15;;;;;;;2.00;1.50;;;;;;;6.87;77.20;94755.94;5077249;28;20277;-67
2024/01/02 06:46:40;;;;;;;1.53;1.30;;;;;;;6.93;77.49;94756.22;5082203;28;20208;-67
2024/01/02 06:49:06;;;;;;;1.67;1.57;;;;;;;6.95;77.22;94750.84;5080354;28;20195;-67
2024/01/02 06:51:31;;;;;;;1.67;1.57;;;;;;;6.88;77.49;94753.19;5075762;28;20229;-68
2024/01/02 06:53:57;;;;;;;1.70;1.43;;;;;;;6.83;77.88;94764.03;5075035;28;20221;-68
2024/01/02 06:56:22;;;;;;;1.70;1.60;;;;;;;7.01;77.80;94785.13;5076789;28;20237;-69
2024/01/02 06:58:47;;;;;;;2.27;1.93;;;;;;;6.92;77.95;94770.25;5067309;28;20217;-68
2024/01/02 07:01:14;;;;;;;1.77;1.60;;;;;;;6.92;78.08;94783.31;5073583;28;20184;-68
2024/01/02 07:03:40;;;;;;;2.23;2.03;;;;;;;6.99;78.35;94786.22;5073134;28;20274;-68
2024/01/02 07:06:06;;;;;;;1.50;1.40;;;;;;;7.02;78.20;94789.38;5078978;28;20229;-67
2024/01/02 07:08:31;;;;;;;1.73;1.50;;;;;;;7.13;77.87;94777.16;5071385;28;20227;-68
2024/01/02 07:10:57;;;;;;;3.13;1.70;;;;;;;6.91;78.35;94779.06;5084614;28;20225;-68
2024/01/02 07:13:22;;;;;;;1.70;1.60;;;;;;;7.11;78.05;94779.06;5075394;28;20185;-67
2024/01/02 07:15:48;;;;;;;2.30;1.83;;;;;;;7.11;78.59;94761.63;5084016;28;20296;-69
2024/01/02 07:18:13;;;;;;;2.17;1.80;;;;;;;6.95;79.21;94756.06;5076060;28;20235;-67
2024/01/02 07:20:38;;;;;;;2.57;1.77;;;;;;;6.99;78.55;94760.91;5076875;28;20220;-67
2024/01/02 07:23:04;;;;;;;7.33;3.30;;;;;;;7.11;78.48;94772.06;5074919;28;20227;-68
2024/01/02 07:25:29;;;;;;;4.03;2.63;;;;;;;7.05;77.75;94778.66;5074547;28;20291;-68
2024/01/02 07:27:55;;;;;;;2.40;2.10;;;;;;;7.07;77.78;94781.13;5064146;28;20185;-68
2024/01/02 07:30:20;;;;;;;3.10;1.77;;;;;;;7.05;77.84;94788.28;5073785;28;20217;-68
2024/01/02 07:32:46;;;;;;;2.50;1.70;;;;;;;6.99;77.24;94779.19;5074246;28;20224;-67
2024/01/02 07:35:11;;;;;;;2.17;1.60;;;;;;;6.97;77.24;94801.22;5065252;28;20241;-68
2024/01/02 07:37:37;;;;;;;2.03;1.77;;;;;;;6.95;77.33;94798.75;5080520;28;20225;-67
2024/01/02 07:40:02;;;;;;;2.60;1.90;;;;;;;6.67;78.13;94791.66;5075652;28;20302;-69
2024/01/02 07:42:28;;;;;;;2.00;1.77;;;;;;;6.69;77.88;94808.84;5070499;28;20225;-68
2024/01/02 07:44:54;;;;;;;2.13;1.30;;;;;;;6.52;78.54;94802.50;5074318;28;20227;-68
2024/01/02 07:47:19;;;;;;;2.47;2.10;;;;;;;6.66;77.99;94803.06;5073682;28;20218;-68
2024/01/02 07:49:45;;;;;;;3.07;2.20;;;;;;;6.65;78.57;94811.84;5066404;28;20223;-69
2024/01/02 07:52:10;;;;;;;2.80;2.00;;;;;;;6.78;78.70;94810.66;5076288;28;20188;-68
2024/01/02 07:54:38;;;;;;;2.73;2.00;;;;;;;6.84;78.76;94815.38;5071683;28;20221;-68
2024/01/02 07:57:04;;;;;;;2.20;2.00;;;;;;;6.93;78.46;94805.88;5078676;28;20228;-67
2024/01/02 07:59:29;;;;;;;2.07;1.73;;;;;;;6.96;78.60;94808.22;5073962;28;20225;-68
2024/01/02 08:01:55;;;;;;;15.33;12.83;;;;;;;6.93;78.52;94820.75;5068278;28;20247;-67
2024/01/02 08:04:20;;;;;;;5.87;4.03;;;;;;;6.95;78.27;94817.03;5070648;28;20193;-68
2024/01/02 08:06:46;;;;;;;3.07;2.77;;;;;;;6.96;78.11;94821.31;5075998;28;20188;-68
2024/01/02 08:09:11;;;;;;;3.00;2.70;;;;;;;7.03;77.33;94832.03;5075880;28;20223;-68
2024/01/02 08:11:37;;;;;;;3.47;2.50;;;;;;;7.00;76.08;94825.31;5078220;28;20219;-68
2024/01/02 08:14:02;;;;;;;1.67;1.10;;;;;;;7.02;75.39;94827.78;5073066;28;20220;-68
2024/01/02 08:16:28;;;;;;;0.80;0.80;;;;;;;6.94;75.39;94828.44;5072505;28;20215;-66
2024/01/02 08:18:53;;;;;;;2.50;0.90;;;;;;;7.00;75.42;94840.16;5068776;28;20276;-67
2024/01/02 08:21:19;;;;;;;2.80;0.80;;;;;;;7.04;75.27;94841.53;5075339;28;20225;-67
2024/01/02 08:23:44;;;;;;;0.83;0.80;;;;;;;7.08;75.00;94850.75;5070036;28;20228;-68
2024/01/02 08:26:13;;;;;;;1.00;0.67;;;;;;;7.09;75.54;94841.97;5081131;28;20228;-66
2024/01/02 08:28:39;;;;;;;1.57;0.70;;;;;;;7.14;75.93;94847.63;5069637;28;20220;-67
2024/01/02 08:31:04;;;;;;;1.37;0.80;;;;;;;7.04;75.09;94834.53;5072771;28;20188;-68
2024/01/02 08:33:30;;;;;;;4.43;0.93;;;;;;;7.12;74.61;94841.69;5072418;28;20231;-71
2024/01/02 08:35:55;;;;;;;2.77;0.77;;;;;;;7.19;74.65;94837.59;5077266;28;20225;-70
2024/01/02 08:38:21;;;;;;;0.83;0.60;;;;;;;7.22;74.42;94833.88;5077895;28;20220;-74
2024/01/02 08:40:52;;;;;;;0.70;0.70;;;;;;;7.32;73.86;94841.72;5076970;28;20246;-76
2024/01/02 08:43:18;;;;;;;0.70;0.70;;;;;;;7.28;74.00;94835.94;5070797;28;20189;-68
2024/01/02 08:45:44;;;;;;;1.00;0.90;;;;;;;7.39;73.79;94827.97;5081185;28;20187;-74
2024/01/02 08:48:12;;;;;;;1.80;1.40;;;;;;;7.31;74.14;94840.91;5075070;28;20216;-75
2024/01/02 08:50:41;;;;;;;2.20;0.97;;;;;;;7.21;74.91;94833.03;5072224;28;20294;-75
2024/01/02 08:53:08;;;;;;;2.03;1.00;;;;;;;7.29;74.99;94827.13;5069921;28;20227;-68
2024/01/02 08:55:33;;;;;;;1.33;1.07;;;;;;;7.37;74.84;94829.88;5073743;28;20217;-70
2024/01/02 08:57:59;;;;;;;1.00;0.90;;;;;;;7.33;75.60;94825.91;5072906;28;20226;-74
2024/01/02 09:00:24;;;;;;;1.47;0.90;;;;;;;7.49;75.81;94841.06;5072758;28;20233;-68
2024/01/02 09:03:00;;;;;;;2.43;1.10;;;;;;;7.15;75.23;94836.19;5071594;28;20217;-71
2024/01/02 09:05:26;;;;;;;1.40;1.30;;;;;;;7.27;76.20;94837.72;5067813;28;20223;-70
2024/01/02 09:07:59;;;;;;;4.83;1.57;;;;;;;7.51;75.47;94837.34;5074365;28;20213;-73
2024/01/02 09:10:25;;;;;;;1.87;1.50;;;;;;;7.50;74.58;94830.44;5070342;28;20185;-69
2024/01/02 09:12:50;;;;;;;1.37;1.20;;;;;;;7.60;75.01;94833.06;5078588;28;20207;-74
2024/01/02 09:15:16;;;;;;;2.20;1.23;;;;;;;7.50;75.15;94830.44;5081138;28;20227;-73
2024/01/02 09:17:41;;;;;;;2.73;1.80;;;;;;;7.47;75.33;94825.47;5073891;28;20307;-68
2024/01/02 09:20:07;;;;;;;2.97;1.60;;;;;;;7.48;75.44;94816.69;5074498;28;20307;-72
2024/01/02 09:22:32;;;;;;;2.53;1.70;;;;;;;7.60;75.95;94821.78;5074583;28;20202;-76
2024/01/02 09:24:59;;;;;;;1.93;1.60;;;;;;;7.56;75.61;94823.81;5073534;28;20197;-75
2024/01/02 09:27:29;;;;;;;2.70;1.50;;;;;;;7.68;75.48;94830.56;5062057;28;20263;-75
2024/01/02 09:30:00;;;;;;;2.20;1.50;;;;;;;7.61;75.62;94819.00;5073180;28;20224;-70
2024/01/02 09:32:26;;;;;;;2.33;1.40;;;;;;;7.63;75.35;94822.31;5075438;28;20228;-74
2024/01/02 09:34:52;;;;;;;2.10;1.90;;;;;;;7.71;75.39;94824.25;5070746;28;20230;-70
2024/01/02 09:37:18;;;;;;;2.23;2.03;;;;;;;7.69;75.50;94820.94;5071434;28;20188;-72
2024/01/02 09:39:44;;;;;;;2.23;1.77;;;;;;;7.60;75.02;94819.16;5073201;28;20641;-72
2024/01/02 09:42:18;;;;;;;1.83;1.53;;;;;;;7.65;74.35;94819.56;5065881;28;20266;-72
2024/01/02 09:45:09;;;;;;;3.00;1.40;;;;;;;7.65;73.70;94816.97;5061205;28;20219;-69
2024/01/02 09:47:42;;;;;;;1.83;1.40;;;;;;;7.68;72.63;94806.22;5068847;28;20227;-75
2024/01/02 09:50:12;;;;;;;1.90;1.40;;;;;;;7.54;71.66;94798.75;5081277;28;20245;-72
2024/01/02 09:52:41;;;;;;;1.50;1.37;;;;;;;7.62;71.81;94806.78;5081520;28;20228;-75
2024/01/02 09:55:33;;;;;;;1.90;1.47;;;;;;;7.61;71.83;94805.09;5076740;28;20212;-74
2024/01/02 09:58:20;;;;;;;1.83;1.30;;;;;;;7.59;72.22;94796.56;5072391;28;20216;-75
2024/01/02 10:01:07;;;;;;;1.87;1.27;;;;;;;7.69;71.50;94800.81;5079413;28;20223;-69
2024/01/02 10:03:57;;;;;;;1.50;1.10;;;;;;;7.56;71.56;94792.41;5070564;28;20256;-74
2024/01/02 10:06:58;;;;;;;1.40;1.20;;;;;;;7.68;71.18;94780.03;5073996;28;20221;-75
2024/01/02 10:09:43;;;;;;;1.47;1.20;;;;;;;7.75;71.37;94762.78;5066672;28;20251;-80
2024/01/02 10:12:20;;;;;;;2.53;1.77;;;;;;;7.90;70.79;94769.25;5079541;28;20262;-71
2024/01/02 10:14:58;;;;;;;1.60;1.50;;;;;;;7.96;71.44;94765.22;5068992;28;20282;-69
2024/01/02 10:17:55;;;;;;;2.10;1.73;;;;;;;8.11;71.51;94771.66;5082251;28;20299;-74
2024/01/02 10:20:58;;;;;;;1.87;1.60;;;;;;;8.31;69.98;94767.19;5071844;28;20407;-76
2024/01/02 10:23:27;;;;;;;2.47;1.50;;;;;;;8.24;70.47;94766.13;5081732;28;20626;-69
2024/01/02 10:25:57;;;;;;;2.00;1.70;;;;;;;8.47;70.04;94748.25;5079016;28;20217;-71
2024/01/02 10:28:29;;;;;;;1.83;1.50;;;;;;;8.47;68.93;94752.66;5069314;28;20234;-76
2024/01/02 10:31:30;;;;;;;3.70;2.10;;;;;;;8.74;68.46;94747.44;5071638;28;20263;-69
2024/01/02 10:34:10;;;;;;;3.27;2.70;;;;;;;8.91;68.81;94743.19;4996279;28;20260;-67
2024/01/02 10:36:42;;;;;;;2.27;1.50;;;;;;;8.95;67.84;94744.50;4986804;28;20274;-70
2024/01/02 10:39:29;;;;;;;1.60;1.30;;;;;;;9.13;66.16;94746.34;4993104;28;20249;-75
2024/01/02 10:41:57;;;;;;;2.73;1.40;;;;;;;9.25;66.70;94751.22;4983147;28;20223;-69
2024/01/02 10:44:45;;;;;;;2.07;1.67;;;;;;;9.50;65.71;94754.06;4984976;28;20303;-72
2024/01/02 10:47:25;;;;;;;3.30;2.27;;;;;;;9.59;65.00;94739.19;4903000;29;20234;-72
2024/01/02 10:49:57;;;;;;;2.83;1.70;;;;;;;9.67;65.24;94742.69;4904245;29;20245;-72
2024/01/02 10:52:34;;;;;;;1.83;1.70;;;;;;;9.75;64.11;94741.13;4902413;29;20282;-76
2024/01/02 10:55:14;;;;;;;4.13;2.10;;;;;;;9.79;64.44;94742.47;4909678;29;20210;-75
2024/01/02 10:57:52;;;;;;;2.07;1.87;;;;;;;9.59;64.47;94739.19;4905797;29;20234;-74
2024/01/02 11:00:22;;;;;;;2.07;1.57;;;;;;;9.37;65.40;94732.63;4902271;29;20234;-74
2024/01/02 11:03:07;;;;;;;2.50;1.93;;;;;;;9.48;64.61;94729.75;4904519;29;20230;-70
2024/01/02 11:05:39;;;;;;;2.77;1.70;;;;;;;9.44;65.21;94723.19;4904466;29;20222;-72
2024/01/02 11:08:20;;;;;;;2.03;1.83;;;;;;;9.57;65.39;94734.09;4903379;29;20258;-70
2024/01/02 11:10:53;;;;;;;2.73;2.37;;;;;;;9.65;65.09;94730.69;4950925;28;20226;-71
2024/01/02 11:13:19;;;;;;;3.50;2.50;;;;;;;9.65;64.82;94722.81;5020501;28;20194;-71
2024/01/02 11:15:48;;;;;;;2.30;2.10;;;;;;;9.82;63.47;94723.78;5015972;28;20211;-70
2024/01/02 11:18:16;;;;;;;2.80;2.43;;;;;;;9.79;63.61;94717.03;5012543;28;20289;-70
2024/01/02 11:21:01;;;;;;;2.57;2.30;;;;;;;9.94;63.84;94720.75;5016282;28;20218;-70
2024/01/02 11:23:30;;;;;;;4.00;2.07;;;;;;;9.84;64.00;94716.56;5013102;28;20223;-74
2024/01/02 11:26:12;;;;;;;3.47;1.97;;;;;;;9.90;63.30;94715.94;5072432;28;20212;-72
2024/01/02 11:28:40;;;;;;;1.77;1.67;;;;;;;9.83;63.67;94709.66;5072386;28;20224;-74
2024/01/02 11:31:08;;;;;;;3.23;2.10;;;;;;;10.06;63.48;94702.09;5065920;28;20208;-74
2024/01/02 11:33:49;;;;;;;4.17;2.00;;;;;;;10.04;64.25;94709.28;5080133;28;20303;-73
2024/01/02 11:36:33;;;;;;;2.10;1.83;;;;;;;10.14;64.63;94705.56;5083836;28;20256;-72
2024/01/02 11:39:37;;;;;;;2.70;2.30;;;;;;;10.69;63.04;94706.97;5058487;28;20230;-73
2024/01/02 11:42:08;;;;;;;2.08;1.75;;;;;;;10.89;61.67;94704.06;5051470;28;20346;-72
2024/01/02 11:45:08;;;;;;;1.90;1.70;;;;;;;10.89;60.80;94704.88;5076861;28;20221;-72